createdAt,value
2023-04-13T00:00:09.641Z,96878.66
2023-04-13T00:02:55.229Z,96816.53
2023-04-13T00:05:40.521Z,96823.66
2023-04-13T00:08:25.627Z,96819.78
2023-04-13T00:11:11.557Z,96751.22
2023-04-13T00:13:57.174Z,96802.66
2023-04-13T00:16:42.601Z,96840.81
2023-04-13T00:19:28.243Z,96791.84
2023-04-13T00:22:16.295Z,96761.28
2023-04-13T00:25:01.710Z,96848.97
2023-04-13T00:27:47.376Z,96613.97
2023-04-13T00:30:32.725Z,96576.47
2023-04-13T00:33:17.955Z,96536.25
2023-04-13T00:36:03.478Z,96871.22
2023-04-13T00:38:49.125Z,96864.75
2023-04-13T00:41:34.178Z,96864.19
2023-04-13T00:44:20.063Z,96893.84
2023-04-13T00:47:06.505Z,96831.38
2023-04-13T00:49:53.677Z,96890.94
2023-04-13T00:52:40.742Z,96904.41
2023-04-13T00:55:26.475Z,96841.03
2023-04-13T00:58:12.616Z,96827.75
2023-04-13T01:00:58.067Z,96914.19
2023-04-13T01:03:43.287Z,96864.22
2023-04-13T01:06:33.509Z,96846.16
2023-04-13T01:09:34.848Z,96821.94
2023-04-13T01:12:45.359Z,96903.97
2023-04-13T01:15:35.277Z,96908.19
2023-04-13T01:18:21.630Z,96721.50
2023-04-13T01:21:13.231Z,96634.66
2023-04-13T01:24:32.298Z,96892.31
2023-04-13T01:27:23.214Z,96638.63
2023-04-13T01:30:11.276Z,96811.50
2023-04-13T01:32:58.093Z,96867.72
2023-04-13T01:35:45.685Z,96770.69
2023-04-13T01:38:34.588Z,96806.69
2023-04-13T01:41:20.101Z,96817.03
2023-04-13T01:44:05.763Z,96235.22
2023-04-13T01:46:56.104Z,96898.00
2023-04-13T01:50:12.078Z,96804.69
2023-04-13T01:53:20.123Z,96835.91
2023-04-13T01:56:06.402Z,96892.09
2023-04-13T01:58:54.726Z,96783.22
2023-04-13T02:01:40.498Z,96777.63
2023-04-13T02:04:26.326Z,96751.41
2023-04-13T02:07:11.759Z,96599.53
2023-04-13T02:10:02.747Z,96560.88
2023-04-13T02:12:48.527Z,96911.72
2023-04-13T02:15:35.711Z,96880.13
2023-04-13T02:18:21.485Z,96925.66
2023-04-13T02:21:08.607Z,96912.59
2023-04-13T02:23:53.958Z,96722.84
2023-04-13T02:26:41.247Z,96869.06
2023-04-13T02:29:26.585Z,96901.94
2023-04-13T02:32:12.182Z,96529.09
2023-04-13T02:34:57.503Z,96820.00
2023-04-13T02:37:43.007Z,96865.38
2023-04-13T02:40:31.651Z,96671.72
2023-04-13T02:43:17.217Z,96614.34
2023-04-13T02:46:02.540Z,96813.97
2023-04-13T02:48:53.366Z,96737.66
2023-04-13T02:51:38.447Z,96893.00
2023-04-13T02:54:24.568Z,96751.44
2023-04-13T02:57:10.237Z,96656.91
2023-04-13T02:59:58.201Z,96866.47
2023-04-13T03:02:48.251Z,96906.41
2023-04-13T03:05:36.607Z,96672.53
2023-04-13T03:08:23.305Z,96860.44
2023-04-13T03:11:21.866Z,96888.28
2023-04-13T03:14:12.827Z,96853.03
2023-04-13T03:16:59.399Z,96866.19
2023-04-13T03:19:52.896Z,96701.00
2023-04-13T03:22:40.936Z,96766.31
2023-04-13T03:25:26.773Z,96481.25
2023-04-13T03:28:12.102Z,96776.66
2023-04-13T03:31:01.433Z,96617.47
2023-04-13T03:33:55.081Z,96763.69
2023-04-13T03:36:40.781Z,96834.84
2023-04-13T03:39:26.704Z,96785.78
2023-04-13T03:42:12.029Z,96754.22
2023-04-13T03:45:04.736Z,96854.88
2023-04-13T03:47:50.138Z,96660.84
2023-04-13T03:50:39.491Z,96833.59
2023-04-13T03:53:27.090Z,96799.28
2023-04-13T03:56:14.627Z,96841.53
2023-04-13T03:59:00.290Z,96846.31
2023-04-13T04:01:46.825Z,96806.78
2023-04-13T04:04:32.324Z,96847.34
2023-04-13T04:07:18.151Z,96857.50
2023-04-13T04:10:04.235Z,96819.00
2023-04-13T04:12:49.608Z,96798.81
2023-04-13T04:15:35.365Z,96631.47
2023-04-13T04:18:24.623Z,96665.16
2023-04-13T04:21:10.563Z,96861.38
2023-04-13T04:23:56.283Z,96883.31
2023-04-13T04:26:41.869Z,96848.84
2023-04-13T04:29:27.475Z,96752.69
2023-04-13T04:32:14.357Z,96710.41
2023-04-13T04:35:00.766Z,96889.66
2023-04-13T04:37:46.445Z,96782.91
2023-04-13T04:40:35.967Z,96897.19
2023-04-13T04:43:23.776Z,96572.78
2023-04-13T04:46:09.363Z,96873.81
2023-04-13T04:49:00.419Z,96885.00
2023-04-13T04:51:48.859Z,96883.81
2023-04-13T04:54:34.642Z,96859.53
2023-04-13T04:57:20.313Z,96891.88
2023-04-13T05:00:07.426Z,96747.16
2023-04-13T05:02:52.884Z,96895.66
2023-04-13T05:05:38.449Z,96870.59
2023-04-13T05:08:27.771Z,96833.34
2023-04-13T05:11:13.548Z,96935.06
2023-04-13T05:14:00.183Z,96909.06
2023-04-13T05:16:46.150Z,96850.81
2023-04-13T05:19:39.087Z,96697.22
2023-04-13T05:22:49.346Z,96866.09
2023-04-13T05:25:35.619Z,96874.16
2023-04-13T05:28:26.298Z,96729.03
2023-04-13T05:31:12.143Z,96890.34
2023-04-13T05:34:01.772Z,96962.38
2023-04-13T05:36:47.379Z,96753.31
2023-04-13T05:39:33.430Z,96883.06
2023-04-13T05:42:18.918Z,96937.53
2023-04-13T05:45:05.704Z,96948.72
2023-04-13T05:47:51.312Z,96890.78
2023-04-13T05:50:38.187Z,96895.50
2023-04-13T05:53:23.987Z,96960.28
2023-04-13T05:56:12.683Z,96892.47
2023-04-13T05:58:59.288Z,96663.47
2023-04-13T06:01:47.046Z,96769.31
2023-04-13T06:04:32.621Z,96958.84
2023-04-13T06:07:18.454Z,96834.66
2023-04-13T06:10:04.007Z,96831.66
2023-04-13T06:12:49.334Z,96924.81
2023-04-13T06:15:36.882Z,96995.47
2023-04-13T06:18:22.102Z,96674.09
2023-04-13T06:21:08.057Z,96732.28
2023-04-13T06:23:53.638Z,97005.66
2023-04-13T06:26:47.165Z,96907.22
2023-04-13T06:29:33.256Z,96992.31
2023-04-13T06:32:24.578Z,97019.84
2023-04-13T06:35:09.987Z,96754.88
2023-04-13T06:38:03.327Z,96986.69
2023-04-13T06:41:02.879Z,96913.53
2023-04-13T06:43:50.767Z,96940.44
2023-04-13T06:46:52.243Z,96894.88
2023-04-13T06:49:44.599Z,96943.38
2023-04-13T06:52:30.645Z,96982.22
2023-04-13T06:55:17.880Z,96978.19
2023-04-13T06:58:03.620Z,97020.66
2023-04-13T07:00:49.340Z,96983.16
2023-04-13T07:03:35.183Z,97020.75
2023-04-13T07:06:23.256Z,96994.63
2023-04-13T07:09:10.055Z,96858.19
2023-04-13T07:11:55.598Z,97018.78
2023-04-13T07:14:41.295Z,96675.53
2023-04-13T07:17:29.255Z,96796.81
2023-04-13T07:20:14.890Z,96977.03
2023-04-13T07:23:00.282Z,96994.03
2023-04-13T07:25:46.071Z,96827.50
2023-04-13T07:28:38.110Z,97020.09
2023-04-13T07:31:23.975Z,96989.53
2023-04-13T07:34:11.173Z,96954.41
2023-04-13T07:37:01.551Z,96442.94
2023-04-13T07:39:47.305Z,97008.53
2023-04-13T07:42:32.949Z,96995.63
2023-04-13T07:45:18.453Z,96931.63
2023-04-13T07:48:04.930Z,96896.09
2023-04-13T07:50:51.700Z,96855.09
2023-04-13T07:53:40.360Z,96790.88
2023-04-13T07:56:25.820Z,96924.91
2023-04-13T07:59:12.471Z,96985.91
2023-04-13T08:01:59.171Z,97038.84
2023-04-13T08:04:46.953Z,96965.34
2023-04-13T08:07:38.317Z,96910.41
2023-04-13T08:10:25.549Z,96929.38
2023-04-13T08:13:14.672Z,96934.13
2023-04-13T08:16:01.988Z,96919.63
2023-04-13T08:18:50.261Z,96831.63
2023-04-13T08:21:37.537Z,96942.28
2023-04-13T08:24:24.074Z,96991.38
2023-04-13T08:27:09.501Z,96811.50
2023-04-13T08:29:59.334Z,96942.03
2023-04-13T08:32:44.778Z,96919.28
2023-04-13T08:35:31.398Z,96796.34
2023-04-13T08:38:19.263Z,96758.97
2023-04-13T08:41:09.796Z,96993.19
2023-04-13T08:43:56.735Z,97041.09
2023-04-13T08:46:46.379Z,97027.00
2023-04-13T08:49:36.517Z,96926.50
2023-04-13T08:52:30.810Z,96995.97
2023-04-13T08:55:16.998Z,96985.59
2023-04-13T08:58:05.407Z,96965.81
2023-04-13T09:00:50.862Z,97013.59
2023-04-13T09:03:48.822Z,97017.50
2023-04-13T09:06:37.511Z,96846.13
2023-04-13T09:09:26.704Z,97055.72
2023-04-13T09:12:12.125Z,96939.88
2023-04-13T09:14:58.160Z,96965.44
2023-04-13T09:17:46.815Z,96923.44
2023-04-13T09:20:33.654Z,97004.31
2023-04-13T09:23:18.822Z,96969.13
2023-04-13T09:26:10.081Z,97064.75
2023-04-13T09:28:56.848Z,97067.31
2023-04-13T09:31:45.062Z,96907.16
2023-04-13T09:34:31.081Z,96858.19
2023-04-13T09:37:16.363Z,96840.59
2023-04-13T09:40:17.722Z,97081.38
2023-04-13T09:43:05.213Z,97037.97
2023-04-13T09:45:50.674Z,97030.38
2023-04-13T09:48:35.899Z,96924.94
2023-04-13T09:51:21.281Z,97106.13
2023-04-13T09:54:07.129Z,96871.75
2023-04-13T09:56:52.145Z,96891.63
2023-04-13T09:59:38.012Z,96981.66
2023-04-13T10:02:23.632Z,96906.47
2023-04-13T10:05:10.074Z,97053.13
2023-04-13T10:07:55.425Z,97101.59
2023-04-13T10:10:41.149Z,97032.63
2023-04-13T10:13:34.143Z,96886.41
2023-04-13T10:16:38.457Z,97108.88
2023-04-13T10:19:27.943Z,97034.81
2023-04-13T10:22:14.733Z,96937.97
2023-04-13T10:24:59.916Z,96994.78
2023-04-13T10:27:56.536Z,97092.22
2023-04-13T10:30:51.757Z,97112.84
2023-04-13T10:33:50.940Z,97111.81
2023-04-13T10:36:44.271Z,97119.28
2023-04-13T10:39:38.998Z,96963.19
2023-04-13T10:42:24.225Z,97089.28
2023-04-13T10:45:28.929Z,97121.25
2023-04-13T10:48:20.331Z,97093.81
2023-04-13T10:51:05.935Z,97048.03
2023-04-13T10:53:51.469Z,97006.06
2023-04-13T10:56:37.422Z,97116.22
2023-04-13T10:59:22.752Z,96952.97
2023-04-13T11:02:12.781Z,97065.88
2023-04-13T11:04:59.294Z,97033.50
2023-04-13T11:07:45.085Z,96829.34
2023-04-13T11:10:30.394Z,96783.53
2023-04-13T11:13:15.576Z,96726.25
2023-04-13T11:16:05.406Z,97111.59
2023-04-13T11:19:04.083Z,96965.44
2023-04-13T11:21:55.843Z,96894.13
2023-04-13T11:24:41.408Z,97150.13
2023-04-13T11:27:26.635Z,97042.31
2023-04-13T11:30:12.260Z,97099.19
2023-04-13T11:32:59.867Z,97140.44
2023-04-13T11:35:49.775Z,96995.09
2023-04-13T11:38:35.627Z,97059.41
2023-04-13T11:41:21.240Z,97048.63
2023-04-13T11:44:06.563Z,96925.25
2023-04-13T11:46:52.967Z,97036.81
2023-04-13T11:49:38.247Z,96869.03
2023-04-13T11:52:24.544Z,97031.50
2023-04-13T11:55:21.618Z,97138.69
2023-04-13T11:58:10.876Z,96915.28
2023-04-13T12:00:59.875Z,97024.78
2023-04-13T12:04:01.600Z,97042.59
2023-04-13T12:06:54.172Z,97063.22
2023-04-13T12:12:51.142Z,97109.78
2023-04-13T12:15:43.972Z,96939.44
2023-04-13T12:18:57.317Z,97028.53
2023-04-13T12:22:01.416Z,97075.59
2023-04-13T12:24:51.027Z,97142.16
2023-04-13T12:27:40.739Z,97074.88
2023-04-13T12:30:25.706Z,97110.75
2023-04-13T12:33:11.628Z,97002.13
2023-04-13T12:35:56.670Z,97066.81
2023-04-13T12:38:42.018Z,97111.69
2023-04-13T12:41:29.421Z,96928.06
2023-04-13T12:44:14.679Z,97132.53
2023-04-13T12:47:00.354Z,97007.25
2023-04-13T12:49:46.103Z,96946.94
2023-04-13T12:52:31.375Z,97134.88
2023-04-13T12:55:16.909Z,96890.50
2023-04-13T12:58:02.192Z,97066.94
2023-04-13T13:00:48.423Z,97158.00
2023-04-13T13:03:34.178Z,97133.00
2023-04-13T13:06:19.916Z,97084.81
2023-04-13T13:09:05.266Z,97107.97
2023-04-13T13:11:51.079Z,96797.44
2023-04-13T13:14:36.577Z,96928.84
2023-04-13T13:17:21.951Z,97000.59
2023-04-13T13:20:11.552Z,97176.50
2023-04-13T13:22:57.262Z,97036.13
2023-04-13T13:25:52.508Z,97037.88
2023-04-13T13:28:48.144Z,97033.69
2023-04-13T13:31:35.597Z,97173.03
2023-04-13T13:34:21.285Z,97120.34
2023-04-13T13:37:07.136Z,97095.16
2023-04-13T13:39:52.998Z,97154.56
2023-04-13T13:42:50.726Z,97113.09
2023-04-13T13:45:37.220Z,97151.53
2023-04-13T13:48:23.567Z,97098.16
2023-04-13T13:51:20.376Z,97004.88
2023-04-13T13:54:05.967Z,97225.75
2023-04-13T13:56:51.365Z,97133.72
2023-04-13T13:59:36.960Z,97230.78
2023-04-13T14:02:22.589Z,97207.59
2023-04-13T14:05:08.628Z,97173.06
2023-04-13T14:07:53.946Z,97244.25
2023-04-13T14:10:39.893Z,97194.50
2023-04-13T14:13:25.601Z,97128.59
2023-04-13T14:16:11.062Z,97049.38
2023-04-13T14:18:56.801Z,97232.88
2023-04-13T14:21:42.035Z,97267.66
2023-04-13T14:24:27.700Z,97191.19
2023-04-13T14:27:13.379Z,97101.22
2023-04-13T14:29:59.223Z,97041.44
2023-04-13T14:32:44.639Z,97114.31
2023-04-13T14:35:30.074Z,97183.69
2023-04-13T14:38:16.050Z,97240.44
2023-04-13T14:41:01.859Z,97088.09
2023-04-13T14:43:47.114Z,97243.09
2023-04-13T14:46:33.820Z,97246.13
2023-04-13T14:49:19.966Z,97245.44
2023-04-13T14:52:09.163Z,96978.59
2023-04-13T14:54:58.140Z,97291.22
2023-04-13T14:57:44.030Z,97190.75
2023-04-13T15:00:29.755Z,97030.75
2023-04-13T15:03:15.583Z,97233.28
2023-04-13T15:06:04.821Z,97256.72
2023-04-13T15:08:51.230Z,97220.50
2023-04-13T15:11:36.909Z,97128.25
2023-04-13T15:14:22.120Z,97160.44
2023-04-13T15:17:07.613Z,97120.44
2023-04-13T15:19:53.273Z,97034.56
2023-04-13T15:22:38.743Z,97115.13
2023-04-13T15:25:25.171Z,97182.69
2023-04-13T15:28:10.948Z,97274.94
2023-04-13T15:30:56.564Z,97283.53
2023-04-13T15:33:42.280Z,97066.91
2023-04-13T15:36:28.332Z,97238.47
2023-04-13T15:39:15.020Z,97224.22
2023-04-13T15:42:00.522Z,97151.34
2023-04-13T15:44:46.101Z,97198.47
2023-04-13T15:47:32.612Z,97171.31
2023-04-13T15:50:18.752Z,97191.28
2023-04-13T15:53:04.341Z,97046.41
2023-04-13T15:55:50.837Z,97273.34
2023-04-13T15:58:35.861Z,97218.72
2023-04-13T16:01:21.205Z,97302.75
2023-04-13T16:04:06.438Z,97229.44
2023-04-13T16:07:05.008Z,97242.41
2023-04-13T16:09:57.133Z,97156.59
2023-04-13T16:12:42.516Z,97093.06
2023-04-13T16:15:28.256Z,97109.34
2023-04-13T16:18:13.313Z,97132.06
2023-04-13T16:21:00.381Z,97347.16
2023-04-13T16:23:45.939Z,97243.78
2023-04-13T16:26:31.615Z,97281.22
2023-04-13T16:29:16.745Z,97098.25
2023-04-13T16:32:02.193Z,97276.63
2023-04-13T16:34:47.480Z,97305.34
2023-04-13T16:37:33.103Z,97130.53
2023-04-13T16:40:18.818Z,97359.75
2023-04-13T16:43:04.755Z,97151.53
2023-04-13T16:45:50.208Z,97387.91
2023-04-13T16:48:36.162Z,97218.66
2023-04-13T16:51:21.746Z,97322.13
2023-04-13T16:54:07.499Z,97314.19
2023-04-13T16:56:53.100Z,97400.47
2023-04-13T16:59:38.465Z,97392.78
2023-04-13T17:02:31.125Z,97229.41
2023-04-13T17:05:17.423Z,97386.72
2023-04-13T17:08:04.374Z,97390.34
2023-04-13T17:10:50.642Z,97226.31
2023-04-13T17:13:36.693Z,97331.81
2023-04-13T17:16:22.700Z,97358.59
2023-04-13T17:19:08.359Z,97263.63
2023-04-13T17:21:53.910Z,97329.25
2023-04-13T17:24:39.285Z,97369.91
2023-04-13T17:27:25.008Z,97100.56
2023-04-13T17:30:10.835Z,97382.28
2023-04-13T17:32:56.289Z,97407.41
2023-04-13T17:35:41.903Z,97206.22
2023-04-13T17:38:27.371Z,97350.72
2023-04-13T17:41:13.034Z,97305.75
2023-04-13T17:44:02.155Z,97311.63
2023-04-13T17:46:47.377Z,97408.81
2023-04-13T17:49:34.083Z,97402.28
2023-04-13T17:52:19.395Z,97332.91
2023-04-13T17:55:05.579Z,97185.19
2023-04-13T17:57:51.568Z,97175.28
2023-04-13T18:00:37.908Z,97195.91
2023-04-13T18:03:23.526Z,97262.66
2023-04-13T18:06:09.131Z,97365.69
2023-04-13T18:08:54.452Z,97397.28
2023-04-13T18:11:40.159Z,97465.94
2023-04-13T18:14:25.361Z,97360.38
2023-04-13T18:17:10.763Z,97276.97
2023-04-13T18:19:56.183Z,97261.72
2023-04-13T18:22:41.865Z,97228.72
2023-04-13T18:25:27.256Z,97274.44
2023-04-13T18:28:12.811Z,97286.09
2023-04-13T18:31:01.645Z,97287.28
2023-04-13T18:33:47.004Z,97371.47
2023-04-13T18:36:32.245Z,97477.63
2023-04-13T18:39:18.851Z,97487.34
2023-04-13T18:42:04.296Z,97286.50
2023-04-13T18:44:49.606Z,97531.00
2023-04-13T18:47:36.937Z,97155.00
2023-04-13T18:50:23.034Z,97399.56
2023-04-13T18:53:08.315Z,97060.97
2023-04-13T18:55:53.855Z,97410.47
2023-04-13T18:58:39.719Z,97492.53
2023-04-13T19:01:30.589Z,97233.50
2023-04-13T19:04:17.127Z,97191.31
2023-04-13T19:07:04.814Z,97485.13
2023-04-13T19:09:51.387Z,97299.25
2023-04-13T19:12:40.482Z,97250.22
2023-04-13T19:15:25.737Z,97533.88
2023-04-13T19:18:11.024Z,97265.69
2023-04-13T19:20:56.175Z,97452.06
2023-04-13T19:23:42.188Z,97396.38
2023-04-13T19:26:28.089Z,97380.75
2023-04-13T19:29:13.850Z,97311.34
2023-04-13T19:31:59.507Z,97289.75
2023-04-13T19:34:44.936Z,97291.34
2023-04-13T19:37:31.536Z,97260.28
2023-04-13T19:40:16.967Z,97365.56
2023-04-13T19:43:02.566Z,97405.00
2023-04-13T19:45:48.450Z,97295.59
2023-04-13T19:48:34.162Z,97373.69
2023-04-13T19:51:19.601Z,97510.84
2023-04-13T19:54:05.965Z,97549.03
2023-04-13T19:56:51.370Z,97420.75
2023-04-13T19:59:37.079Z,97309.00
2023-04-13T20:02:23.304Z,97531.78
2023-04-13T20:05:08.687Z,97239.47
2023-04-13T20:07:54.317Z,97276.44
2023-04-13T20:10:39.900Z,97387.31
2023-04-13T20:13:25.626Z,97184.56
2023-04-13T20:16:11.136Z,97532.16
2023-04-13T20:18:56.534Z,97289.69
2023-04-13T20:21:42.355Z,97238.53
2023-04-13T20:24:28.106Z,97228.28
2023-04-13T20:27:13.078Z,97445.69
2023-04-13T20:29:58.850Z,97443.72
2023-04-13T20:32:44.487Z,97221.97
2023-04-13T20:35:30.045Z,97384.47
2023-04-13T20:38:15.313Z,97309.97
2023-04-13T20:41:01.112Z,97353.13
2023-04-13T20:43:46.834Z,97414.44
2023-04-13T20:46:32.123Z,97071.75
2023-04-13T20:49:17.422Z,97358.59
2023-04-13T20:52:02.620Z,97340.00
2023-04-13T20:54:48.392Z,97366.44
2023-04-13T20:57:33.977Z,97432.75
2023-04-13T21:00:20.702Z,97443.63
2023-04-13T21:03:06.285Z,97369.22
2023-04-13T21:05:51.817Z,97235.19
2023-04-13T21:08:37.377Z,97451.63
2023-04-13T21:11:23.549Z,96739.78
2023-04-13T21:14:08.759Z,97253.16
2023-04-13T21:16:54.772Z,97321.75
2023-04-13T21:19:40.619Z,97441.56
2023-04-13T21:22:26.119Z,97536.75
2023-04-13T21:25:11.690Z,97352.06
2023-04-13T21:27:57.008Z,97342.19
2023-04-13T21:30:42.437Z,97514.72
2023-04-13T21:33:27.878Z,97349.56
2023-04-13T21:39:02.785Z,97488.53
2023-04-13T21:41:48.407Z,97349.00
2023-04-13T21:44:33.309Z,97439.66
2023-04-13T21:47:18.561Z,97197.06
2023-04-13T21:50:03.920Z,97447.50
2023-04-13T21:52:49.227Z,97569.53
2023-04-13T21:55:34.706Z,97448.94
2023-04-13T21:58:20.068Z,97574.66
2023-04-13T22:01:06.029Z,97435.91
2023-04-13T22:03:51.679Z,97424.66
2023-04-13T22:06:37.172Z,97484.31
2023-04-13T22:09:22.902Z,97220.63
2023-04-13T22:12:08.277Z,97362.16
2023-04-13T22:14:53.921Z,97327.22
2023-04-13T22:17:39.373Z,97309.22
2023-04-13T22:20:24.934Z,97435.78
2023-04-13T22:23:10.730Z,97418.56
2023-04-13T22:25:57.027Z,97386.25
2023-04-13T22:28:42.498Z,97335.91
2023-04-13T22:31:27.777Z,97374.06
2023-04-13T22:34:13.273Z,97493.56
2023-04-13T22:36:58.552Z,97190.88
2023-04-13T22:39:43.937Z,97317.91
2023-04-13T22:42:29.431Z,97346.78
2023-04-13T22:45:14.643Z,97329.66
2023-04-13T22:50:45.299Z,97250.78
2023-04-13T22:53:31.295Z,97443.16
2023-04-13T22:56:16.853Z,97413.63
2023-04-13T22:59:02.542Z,97302.84
2023-04-13T23:01:47.964Z,97400.25
2023-04-13T23:04:33.836Z,97569.03
2023-04-13T23:07:18.944Z,97480.38
2023-04-13T23:10:07.675Z,97494.78
2023-04-13T23:12:52.893Z,97246.97
2023-04-13T23:15:38.533Z,97573.94
2023-04-13T23:18:23.815Z,97535.28
2023-04-13T23:21:10.467Z,97469.56
2023-04-13T23:23:55.548Z,97418.66
2023-04-13T23:26:40.815Z,97514.78
2023-04-13T23:29:25.937Z,97384.47
2023-04-13T23:32:12.120Z,97489.47
2023-04-13T23:34:57.897Z,97449.41
2023-04-13T23:37:43.388Z,97476.03
2023-04-13T23:40:28.498Z,97520.19
2023-04-13T23:43:14.136Z,97503.91
2023-04-13T23:45:59.478Z,97365.56
2023-04-13T23:48:44.750Z,97375.78
2023-04-13T23:51:30.123Z,97272.00
2023-04-13T23:54:15.803Z,97391.28
2023-04-13T23:57:01.432Z,96961.78
2023-04-13T23:59:46.878Z,97302.44
